Time;durP1;ratioP1;P1;durP2;ratioP2;P2;SDS_P1;SDS_P2;PMS_P1;PMS_P2;Temp;Humidity;BMP_temperature;BMP_pressure;BME280_temperature;BME280_humidity;BME280_pressure;Samples;Min_cycle;Max_cycle;Signal;HPM_P1;HPM_P2
2023/05/26 00:00:41;;;;;;;0.00;0.00;;;;;;;;;;1740159;28;20615;-74
2023/05/26 00:01:34;;;;;;;0.00;0.00;;;;;;;;;;1744859;28;20214;-74
2023/05/26 00:02:27;;;;;;;0.00;0.00;;;;;;;;;;1740861;28;20262;-74
2023/05/26 00:03:19;;;;;;;0.00;0.00;;;;;;;;;;1739199;28;20223;-75
2023/05/26 00:04:12;;;;;;;0.00;0.00;;;;;;;;;;1743345;28;20685;-75
2023/05/26 00:05:07;;;;;;;0.00;0.00;;;;;;;;;;1742205;28;20238;-75
2023/05/26 00:05:58;;;;;;;0.00;0.00;;;;;;;;;;1743253;28;20324;-75
2023/05/26 00:06:53;;;;;;;0.00;0.00;;;;;;;;;;1741502;28;20210;-75
2023/05/26 00:07:45;;;;;;;0.00;0.00;;;;;;;;;;1747216;28;20648;-75
2023/05/26 00:08:37;;;;;;;0.00;0.00;;;;;;;;;;1747759;28;20476;-75
2023/05/26 00:09:28;;;;;;;0.00;0.00;;;;;;;;;;1751094;28;20675;-75
2023/05/26 00:10:20;;;;;;;0.00;0.00;;;;;;;;;;1752656;28;20718;-75
2023/05/26 00:11:11;;;;;;;0.00;0.00;;;;;;;;;;1751862;28;20215;-74
2023/05/26 00:12:05;;;;;;;0.00;0.00;;;;;;;;;;1752388;28;20629;-74
2023/05/26 00:12:56;;;;;;;0.00;0.00;;;;;;;;;;1751268;28;20294;-74
2023/05/26 00:13:48;;;;;;;0.10;0.10;;;;;;;;;;1752189;28;20248;-74
2023/05/26 00:14:39;;;;;;;0.10;0.10;;;;;;;;;;1752037;28;20652;-74
2023/05/26 00:15:30;;;;;;;0.00;0.00;;;;;;;;;;1752422;28;20278;-75
2023/05/26 00:16:22;;;;;;;0.00;0.00;;;;;;;;;;1751907;28;20201;-75
2023/05/26 00:17:13;;;;;;;0.00;0.00;;;;;;;;;;1752050;28;20258;-75
2023/05/26 00:18:06;;;;;;;0.00;0.00;;;;;;;;;;1751958;28;20217;-75
2023/05/26 00:18:57;;;;;;;0.00;0.00;;;;;;;;;;1752454;28;20538;-75
2023/05/26 00:19:52;;;;;;;0.03;0.03;;;;;;;;;;1751578;28;20492;-75
2023/05/26 00:20:43;;;;;;;0.00;0.00;;;;;;;;;;1752720;28;20343;-75
2023/05/26 00:21:35;;;;;;;0.10;0.10;;;;;;;;;;1751846;28;20216;-74
2023/05/26 00:22:26;;;;;;;0.00;0.00;;;;;;;;;;1751939;28;20409;-74
2023/05/26 00:23:20;;;;;;;0.00;0.00;;;;;;;;;;1751894;28;20224;-74
2023/05/26 00:24:11;;;;;;;0.00;0.00;;;;;;;;;;1748995;28;20645;-74
2023/05/26 00:25:04;;;;;;;0.00;0.00;;;;;;;;;;1752123;28;20664;-74
2023/05/26 00:25:55;;;;;;;0.00;0.00;;;;;;;;;;1751979;28;20208;-75
2023/05/26 00:26:47;;;;;;;0.00;0.00;;;;;;;;;;1752029;28;20210;-74
2023/05/26 00:27:38;;;;;;;0.00;0.00;;;;;;;;;;1752264;28;20639;-74
2023/05/26 00:28:30;;;;;;;0.00;0.00;;;;;;;;;;1752105;28;20630;-74
2023/05/26 00:29:21;;;;;;;0.00;0.00;;;;;;;;;;1751690;28;20216;-74
2023/05/26 00:30:13;;;;;;;0.00;0.00;;;;;;;;;;1752335;28;20274;-74
2023/05/26 00:31:04;;;;;;;0.00;0.00;;;;;;;;;;1751750;28;20216;-74
2023/05/26 00:31:55;;;;;;;0.00;0.00;;;;;;;;;;1752130;28;20481;-74
2023/05/26 00:32:47;;;;;;;0.00;0.00;;;;;;;;;;1751909;28;20842;-74
2023/05/26 00:33:38;;;;;;;0.00;0.00;;;;;;;;;;1752378;28;20214;-74
2023/05/26 00:34:30;;;;;;;0.00;0.00;;;;;;;;;;1751754;28;20256;-74
2023/05/26 00:35:21;;;;;;;0.00;0.00;;;;;;;;;;1750767;28;20276;-74
2023/05/26 00:36:13;;;;;;;0.00;0.00;;;;;;;;;;1751608;28;20237;-74
2023/05/26 00:37:04;;;;;;;0.00;0.00;;;;;;;;;;1752156;28;20652;-74
2023/05/26 00:37:56;;;;;;;0.00;0.00;;;;;;;;;;1751661;28;20608;-74
2023/05/26 00:38:49;;;;;;;0.00;0.00;;;;;;;;;;1752236;28;20268;-74
2023/05/26 00:39:41;;;;;;;0.00;0.00;;;;;;;;;;1746330;28;20213;-74
2023/05/26 00:40:32;;;;;;;0.00;0.00;;;;;;;;;;1751958;28;20264;-74
2023/05/26 00:41:25;;;;;;;0.00;0.00;;;;;;;;;;1751494;28;20208;-74
2023/05/26 00:42:17;;;;;;;0.00;0.00;;;;;;;;;;1752137;28;20598;-74
2023/05/26 00:43:09;;;;;;;0.00;0.00;;;;;;;;;;1751514;28;20201;-75
2023/05/26 00:44:01;;;;;;;0.00;0.00;;;;;;;;;;1752114;28;20215;-74
2023/05/26 00:44:52;;;;;;;0.00;0.00;;;;;;;;;;1751831;28;20390;-75
2023/05/26 00:45:44;;;;;;;0.00;0.00;;;;;;;;;;1752814;28;20639;-73
2023/05/26 00:46:35;;;;;;;0.00;0.00;;;;;;;;;;1752007;28;20295;-73
2023/05/26 00:47:26;;;;;;;0.00;0.00;;;;;;;;;;1751993;28;20225;-74
2023/05/26 00:48:18;;;;;;;0.00;0.00;;;;;;;;;;1751627;28;20542;-74
2023/05/26 00:49:09;;;;;;;0.08;0.08;;;;;;;;;;1748163;28;20245;-74
2023/05/26 00:50:03;;;;;;;0.00;0.00;;;;;;;;;;1751901;28;20815;-74
2023/05/26 00:50:54;;;;;;;0.00;0.00;;;;;;;;;;1751702;28;20252;-74
2023/05/26 00:51:47;;;;;;;0.00;0.00;;;;;;;;;;1752383;28;20242;-73
2023/05/26 00:52:38;;;;;;;0.00;0.00;;;;;;;;;;1753309;28;20278;-74
2023/05/26 00:53:30;;;;;;;0.00;0.00;;;;;;;;;;1753405;28;20444;-74
2023/05/26 00:54:23;;;;;;;0.00;0.00;;;;;;;;;;1753243;28;20219;-74
2023/05/26 00:55:15;;;;;;;0.00;0.00;;;;;;;;;;1753602;28;20215;-74
2023/05/26 00:56:07;;;;;;;0.00;0.00;;;;;;;;;;1753146;28;20265;-75
2023/05/26 00:56:58;;;;;;;0.00;0.00;;;;;;;;;;1752055;28;20279;-76
2023/05/26 00:57:50;;;;;;;0.00;0.00;;;;;;;;;;1753032;28;20216;-75
2023/05/26 00:58:41;;;;;;;0.00;0.00;;;;;;;;;;1753553;28;20264;-75
2023/05/26 00:59:33;;;;;;;0.00;0.00;;;;;;;;;;1752828;28;20522;-75
2023/05/26 01:00:26;;;;;;;0.00;0.00;;;;;;;;;;1753850;28;20213;-76
2023/05/26 01:01:18;;;;;;;0.00;0.00;;;;;;;;;;1752863;28;20593;-76
2023/05/26 01:02:09;;;;;;;0.00;0.00;;;;;;;;;;1753342;28;20233;-75
2023/05/26 01:03:02;;;;;;;0.00;0.00;;;;;;;;;;1752761;28;20273;-75
2023/05/26 01:03:53;;;;;;;0.00;0.00;;;;;;;;;;1749624;28;20550;-75
2023/05/26 01:04:45;;;;;;;0.00;0.00;;;;;;;;;;1752981;28;20200;-75
2023/05/26 01:05:37;;;;;;;0.00;0.00;;;;;;;;;;1746927;28;20416;-75
2023/05/26 01:06:28;;;;;;;0.00;0.00;;;;;;;;;;1751911;28;20204;-75
2023/05/26 01:07:20;;;;;;;0.00;0.00;;;;;;;;;;1747252;28;20298;-75
2023/05/26 01:08:12;;;;;;;0.00;0.00;;;;;;;;;;1748537;28;20200;-76
2023/05/26 01:09:03;;;;;;;0.00;0.00;;;;;;;;;;1745980;28;20693;-76
2023/05/26 01:09:57;;;;;;;0.00;0.00;;;;;;;;;;1746096;28;20248;-76
2023/05/26 01:10:48;;;;;;;0.00;0.00;;;;;;;;;;1746436;28;20213;-76
2023/05/26 01:11:44;;;;;;;0.00;0.00;;;;;;;;;;1746331;28;20206;-76
2023/05/26 01:12:37;;;;;;;0.00;0.00;;;;;;;;;;1746455;28;20312;-75
2023/05/26 01:13:31;;;;;;;0.00;0.00;;;;;;;;;;1746207;28;20210;-75
2023/05/26 01:14:26;;;;;;;0.00;0.00;;;;;;;;;;1746206;28;20287;-75
2023/05/26 01:15:21;;;;;;;0.00;0.00;;;;;;;;;;1746344;28;20213;-75
2023/05/26 01:16:12;;;;;;;0.00;0.00;;;;;;;;;;1747260;28;20271;-75
2023/05/26 01:17:07;;;;;;;0.00;0.00;;;;;;;;;;1749306;28;20549;-75
2023/05/26 01:18:03;;;;;;;0.00;0.00;;;;;;;;;;1745860;28;20292;-75
2023/05/26 01:18:59;;;;;;;0.00;0.00;;;;;;;;;;1744255;28;20236;-75
2023/05/26 01:20:12;;;;;;;0.00;0.00;;;;;;;;;;1745348;28;20207;-75
2023/05/26 01:21:06;;;;;;;0.00;0.00;;;;;;;;;;1745934;28;20295;-75
2023/05/26 01:22:08;;;;;;;0.00;0.00;;;;;;;;;;1746051;28;20210;-75
2023/05/26 01:23:06;;;;;;;0.00;0.00;;;;;;;;;;1745726;28;20521;-75
2023/05/26 01:24:11;;;;;;;0.00;0.00;;;;;;;;;;1746208;28;20204;-75
2023/05/26 01:25:10;;;;;;;0.00;0.00;;;;;;;;;;1746147;28;20636;-75
2023/05/26 01:26:15;;;;;;;0.10;0.10;;;;;;;;;;1745726;28;20257;-75
2023/05/26 01:27:10;;;;;;;0.00;0.00;;;;;;;;;;1746480;28;20292;-75
2023/05/26 01:28:07;;;;;;;0.10;0.10;;;;;;;;;;1745679;28;20303;-75
2023/05/26 01:29:00;;;;;;;0.00;0.00;;;;;;;;;;1746237;28;20383;-75
2023/05/26 01:29:52;;;;;;;0.00;0.00;;;;;;;;;;1745872;28;20592;-75
2023/05/26 01:30:44;;;;;;;0.00;0.00;;;;;;;;;;1746805;28;20213;-75
2023/05/26 01:31:38;;;;;;;0.00;0.00;;;;;;;;;;1746225;28;20616;-75
2023/05/26 01:32:29;;;;;;;0.10;0.10;;;;;;;;;;1746257;28;20206;-75
2023/05/26 01:33:21;;;;;;;0.00;0.00;;;;;;;;;;1746444;28;20209;-75
2023/05/26 01:34:12;;;;;;;0.00;0.00;;;;;;;;;;1746524;28;20673;-75
2023/05/26 01:35:04;;;;;;;0.00;0.00;;;;;;;;;;1746971;28;20209;-75
2023/05/26 01:35:56;;;;;;;0.00;0.00;;;;;;;;;;1746495;28;20214;-75
2023/05/26 01:36:47;;;;;;;0.00;0.00;;;;;;;;;;1749445;28;20208;-76
2023/05/26 01:37:39;;;;;;;0.10;0.10;;;;;;;;;;1742488;28;20270;-75
2023/05/26 01:38:30;;;;;;;0.00;0.00;;;;;;;;;;1746243;28;20269;-76
2023/05/26 01:39:22;;;;;;;0.00;0.00;;;;;;;;;;1746124;28;20238;-75
2023/05/26 01:40:13;;;;;;;0.00;0.00;;;;;;;;;;1746332;28;20255;-74
2023/05/26 01:41:09;;;;;;;0.05;0.05;;;;;;;;;;1746019;28;20208;-74
2023/05/26 01:42:06;;;;;;;0.00;0.00;;;;;;;;;;1746572;28;20210;-74
2023/05/26 01:43:00;;;;;;;0.00;0.00;;;;;;;;;;1745999;28;20212;-74
2023/05/26 01:43:59;;;;;;;0.10;0.10;;;;;;;;;;1743954;28;20215;-74
2023/05/26 01:44:55;;;;;;;0.00;0.00;;;;;;;;;;1747137;28;20473;-74
2023/05/26 01:45:49;;;;;;;0.00;0.00;;;;;;;;;;1746846;28;20235;-74
2023/05/26 01:46:44;;;;;;;0.00;0.00;;;;;;;;;;1746066;28;20715;-75
2023/05/26 01:47:36;;;;;;;0.00;0.00;;;;;;;;;;1746173;28;20587;-75
2023/05/26 01:48:29;;;;;;;0.00;0.00;;;;;;;;;;1745922;28;20332;-74
2023/05/26 01:49:22;;;;;;;0.10;0.10;;;;;;;;;;1745674;28;20316;-74
2023/05/26 01:50:13;;;;;;;0.03;0.03;;;;;;;;;;1746483;28;20265;-74
2023/05/26 01:51:06;;;;;;;0.00;0.00;;;;;;;;;;1745565;28;20224;-74
2023/05/26 01:51:58;;;;;;;0.00;0.00;;;;;;;;;;1746020;28;20221;-75
2023/05/26 01:52:52;;;;;;;0.00;0.00;;;;;;;;;;1745596;28;20215;-74
2023/05/26 01:53:43;;;;;;;0.10;0.10;;;;;;;;;;1746436;28;20209;-74
2023/05/26 01:54:36;;;;;;;0.00;0.00;;;;;;;;;;1745689;28;20251;-74
2023/05/26 01:55:27;;;;;;;0.10;0.10;;;;;;;;;;1746302;28;20213;-74
2023/05/26 01:56:19;;;;;;;0.00;0.00;;;;;;;;;;1745586;28;20623;-74
2023/05/26 01:57:11;;;;;;;0.00;0.00;;;;;;;;;;1746074;28;20216;-74
2023/05/26 01:58:03;;;;;;;0.00;0.00;;;;;;;;;;1745791;28;20832;-74
2023/05/26 01:58:57;;;;;;;0.00;0.00;;;;;;;;;;1746392;28;20312;-74
2023/05/26 01:59:48;;;;;;;0.00;0.00;;;;;;;;;;1745597;28;20217;-74
2023/05/26 02:00:47;;;;;;;0.00;0.00;;;;;;;;;;1746845;28;20445;-74
2023/05/26 02:01:38;;;;;;;0.00;0.00;;;;;;;;;;1745995;28;20572;-74
2023/05/26 02:02:30;;;;;;;0.10;0.10;;;;;;;;;;1745861;28;20488;-74
2023/05/26 02:03:21;;;;;;;0.00;0.00;;;;;;;;;;1745546;28;20220;-74
2023/05/26 02:04:13;;;;;;;0.10;0.10;;;;;;;;;;1745851;28;20206;-74
2023/05/26 02:05:04;;;;;;;0.00;0.00;;;;;;;;;;1746065;28;20269;-74
2023/05/26 02:05:56;;;;;;;0.00;0.00;;;;;;;;;;1745561;28;20203;-74
2023/05/26 02:06:47;;;;;;;0.00;0.00;;;;;;;;;;1744773;28;20209;-74
2023/05/26 02:07:42;;;;;;;0.00;0.00;;;;;;;;;;1743003;28;20472;-74
2023/05/26 02:08:33;;;;;;;0.00;0.00;;;;;;;;;;1744078;28;20562;-75
2023/05/26 02:09:25;;;;;;;0.00;0.00;;;;;;;;;;1741992;28;20287;-75
2023/05/26 02:10:16;;;;;;;0.00;0.00;;;;;;;;;;1740663;28;20214;-75
2023/05/26 02:11:07;;;;;;;0.00;0.00;;;;;;;;;;1740030;28;20206;-75
2023/05/26 02:11:59;;;;;;;0.00;0.00;;;;;;;;;;1745692;28;20208;-75
2023/05/26 02:12:50;;;;;;;0.00;0.00;;;;;;;;;;1743921;28;20223;-75
2023/05/26 02:13:41;;;;;;;0.00;0.00;;;;;;;;;;1739316;28;20297;-75
2023/05/26 02:14:34;;;;;;;0.00;0.00;;;;;;;;;;1744516;28;20206;-75
2023/05/26 02:15:25;;;;;;;0.03;0.03;;;;;;;;;;1746292;28;20295;-75
2023/05/26 02:16:21;;;;;;;0.00;0.00;;;;;;;;;;1741861;28;20209;-75
2023/05/26 02:17:13;;;;;;;0.00;0.00;;;;;;;;;;1742266;28;20220;-75
2023/05/26 02:18:04;;;;;;;0.00;0.00;;;;;;;;;;1739293;28;20537;-75
2023/05/26 02:18:56;;;;;;;0.00;0.00;;;;;;;;;;1739917;28;20569;-75
2023/05/26 02:19:48;;;;;;;0.00;0.00;;;;;;;;;;1738805;28;20595;-75
2023/05/26 02:20:40;;;;;;;0.00;0.00;;;;;;;;;;1740505;28;20293;-75
2023/05/26 02:21:31;;;;;;;0.00;0.00;;;;;;;;;;1739451;28;20658;-75
2023/05/26 02:22:23;;;;;;;0.00;0.00;;;;;;;;;;1743716;28;20736;-75
2023/05/26 02:23:14;;;;;;;0.00;0.00;;;;;;;;;;1739139;28;20221;-75
2023/05/26 02:24:07;;;;;;;0.00;0.00;;;;;;;;;;1740029;28;20209;-75
2023/05/26 02:24:58;;;;;;;0.00;0.00;;;;;;;;;;1739887;28;20216;-74
2023/05/26 02:25:50;;;;;;;0.03;0.03;;;;;;;;;;1739646;28;20295;-74
2023/05/26 02:26:41;;;;;;;0.00;0.00;;;;;;;;;;1738786;28;20214;-75
2023/05/26 02:27:33;;;;;;;0.00;0.00;;;;;;;;;;1744581;28;20683;-75
2023/05/26 02:28:24;;;;;;;0.00;0.00;;;;;;;;;;1741137;28;20270;-75
2023/05/26 02:29:16;;;;;;;0.00;0.00;;;;;;;;;;1742025;28;20215;-75
2023/05/26 02:30:08;;;;;;;0.00;0.00;;;;;;;;;;1744897;28;20207;-75
2023/05/26 02:31:00;;;;;;;0.10;0.10;;;;;;;;;;1738618;28;20263;-75
2023/05/26 02:31:51;;;;;;;0.00;0.00;;;;;;;;;;1738914;28;20278;-75
2023/05/26 02:32:43;;;;;;;0.00;0.00;;;;;;;;;;1742376;28;20212;-75
2023/05/26 02:33:34;;;;;;;0.05;0.05;;;;;;;;;;1739146;28;20643;-75
2023/05/26 02:34:26;;;;;;;0.00;0.00;;;;;;;;;;1739799;28;20284;-75
2023/05/26 02:35:17;;;;;;;0.00;0.00;;;;;;;;;;1740544;28;20285;-75
2023/05/26 02:36:11;;;;;;;0.00;0.00;;;;;;;;;;1738682;28;20277;-75
2023/05/26 02:37:02;;;;;;;0.00;0.00;;;;;;;;;;1742010;28;20220;-75
2023/05/26 02:37:55;;;;;;;0.00;0.00;;;;;;;;;;1740985;28;20274;-76
2023/05/26 02:38:46;;;;;;;0.00;0.00;;;;;;;;;;1745917;28;20200;-76
2023/05/26 02:39:38;;;;;;;0.00;0.00;;;;;;;;;;1745058;28;20753;-76
2023/05/26 02:40:29;;;;;;;0.10;0.10;;;;;;;;;;1739556;28;20217;-76
2023/05/26 02:41:21;;;;;;;0.00;0.00;;;;;;;;;;1739933;28;21029;-75
2023/05/26 02:42:12;;;;;;;0.00;0.00;;;;;;;;;;1743667;28;20216;-75
2023/05/26 02:43:04;;;;;;;0.00;0.00;;;;;;;;;;1741921;28;20202;-76
2023/05/26 02:43:55;;;;;;;0.00;0.00;;;;;;;;;;1739635;28;20739;-76
2023/05/26 02:44:47;;;;;;;0.10;0.10;;;;;;;;;;1739131;28;20554;-76
2023/05/26 02:45:39;;;;;;;0.00;0.00;;;;;;;;;;1740552;28;20345;-75
2023/05/26 02:46:31;;;;;;;0.00;0.00;;;;;;;;;;1742507;28;20516;-75
2023/05/26 02:47:22;;;;;;;0.10;0.10;;;;;;;;;;1742363;28;20380;-75
2023/05/26 02:48:14;;;;;;;0.00;0.00;;;;;;;;;;1738772;28;20266;-75
2023/05/26 02:49:05;;;;;;;0.00;0.00;;;;;;;;;;1739396;28;20210;-75
2023/05/26 02:49:57;;;;;;;0.00;0.00;;;;;;;;;;1739274;28;20695;-75
2023/05/26 02:50:48;;;;;;;0.00;0.00;;;;;;;;;;1739404;28;20687;-75
2023/05/26 02:51:40;;;;;;;0.10;0.10;;;;;;;;;;1744979;28;20237;-75
2023/05/26 02:52:31;;;;;;;0.08;0.08;;;;;;;;;;1745595;28;20210;-75
2023/05/26 02:53:23;;;;;;;0.00;0.00;;;;;;;;;;1741236;28;20257;-75
2023/05/26 02:54:14;;;;;;;0.00;0.00;;;;;;;;;;1741796;28;20478;-75
2023/05/26 02:55:08;;;;;;;0.00;0.00;;;;;;;;;;1741523;28;20324;-75
2023/05/26 02:55:59;;;;;;;0.00;0.00;;;;;;;;;;1744190;28;20280;-75
2023/05/26 02:56:51;;;;;;;0.00;0.00;;;;;;;;;;1741249;28;20254;-75
2023/05/26 02:57:42;;;;;;;0.00;0.00;;;;;;;;;;1741676;28;20270;-75
2023/05/26 02:58:33;;;;;;;0.00;0.00;;;;;;;;;;1741713;28;20208;-75
2023/05/26 02:59:25;;;;;;;0.00;0.00;;;;;;;;;;1739171;28;20212;-75
2023/05/26 03:00:17;;;;;;;0.00;0.00;;;;;;;;;;1740211;28;20209;-75
2023/05/26 03:01:10;;;;;;;0.10;0.10;;;;;;;;;;1739816;28;20214;-75
2023/05/26 03:02:01;;;;;;;0.00;0.00;;;;;;;;;;1743049;28;20209;-75
2023/05/26 03:02:53;;;;;;;0.30;0.30;;;;;;;;;;1745155;28;20200;-75
2023/05/26 03:03:44;;;;;;;0.00;0.00;;;;;;;;;;1738931;28;20205;-75
2023/05/26 03:04:36;;;;;;;0.00;0.00;;;;;;;;;;1739219;28;20251;-75
2023/05/26 03:05:27;;;;;;;0.00;0.00;;;;;;;;;;1740256;28;20271;-74
2023/05/26 03:06:19;;;;;;;0.00;0.00;;;;;;;;;;1738932;28;20262;-74
2023/05/26 03:07:10;;;;;;;0.10;0.10;;;;;;;;;;1742810;28;20704;-74
2023/05/26 03:08:03;;;;;;;0.00;0.00;;;;;;;;;;1749704;28;20240;-74
2023/05/26 03:08:54;;;;;;;0.00;0.00;;;;;;;;;;1746094;28;20522;-74
2023/05/26 03:09:46;;;;;;;0.10;0.10;;;;;;;;;;1752206;28;20602;-74
2023/05/26 03:10:39;;;;;;;0.00;0.00;;;;;;;;;;1752778;28;20272;-74
2023/05/26 03:11:31;;;;;;;0.00;0.00;;;;;;;;;;1750530;28;20243;-74
2023/05/26 03:12:22;;;;;;;0.00;0.00;;;;;;;;;;1752121;28;20711;-74
2023/05/26 03:13:14;;;;;;;0.00;0.00;;;;;;;;;;1750959;28;20603;-74
2023/05/26 03:14:05;;;;;;;0.00;0.00;;;;;;;;;;1752205;28;20664;-74
2023/05/26 03:14:57;;;;;;;0.00;0.00;;;;;;;;;;1751982;28;20324;-74
2023/05/26 03:15:48;;;;;;;0.00;0.00;;;;;;;;;;1753041;28;20640;-74
2023/05/26 03:16:43;;;;;;;0.00;0.00;;;;;;;;;;1752132;28;20617;-75
2023/05/26 03:17:34;;;;;;;0.00;0.00;;;;;;;;;;1751345;28;20204;-75
2023/05/26 03:18:26;;;;;;;0.00;0.00;;;;;;;;;;1750788;28;20289;-75
2023/05/26 03:19:17;;;;;;;0.00;0.00;;;;;;;;;;1752204;28;20623;-75
2023/05/26 03:20:10;;;;;;;0.10;0.10;;;;;;;;;;1752495;28;20575;-75
2023/05/26 03:21:02;;;;;;;0.00;0.00;;;;;;;;;;1752255;28;20894;-74
2023/05/26 03:21:55;;;;;;;0.00;0.00;;;;;;;;;;1752422;28;20196;-74
2023/05/26 03:22:46;;;;;;;0.00;0.00;;;;;;;;;;1750211;28;20201;-74
2023/05/26 03:23:38;;;;;;;0.00;0.00;;;;;;;;;;1751626;28;20291;-74
2023/05/26 03:24:29;;;;;;;0.00;0.00;;;;;;;;;;1751883;28;20271;-74
2023/05/26 03:25:22;;;;;;;0.00;0.00;;;;;;;;;;1752762;28;20230;-74
2023/05/26 03:26:13;;;;;;;0.00;0.00;;;;;;;;;;1751871;28;20211;-74
2023/05/26 03:27:06;;;;;;;0.00;0.00;;;;;;;;;;1752550;28;20599;-74
2023/05/26 03:27:57;;;;;;;0.00;0.00;;;;;;;;;;1746590;28;20652;-74
2023/05/26 03:28:48;;;;;;;0.10;0.10;;;;;;;;;;1752850;28;20212;-74
2023/05/26 03:29:40;;;;;;;0.00;0.00;;;;;;;;;;1751922;28;20294;-74
2023/05/26 03:30:31;;;;;;;0.00;0.00;;;;;;;;;;1752792;28;20275;-74
2023/05/26 03:31:23;;;;;;;0.10;0.10;;;;;;;;;;1750832;28;20207;-75
2023/05/26 03:32:15;;;;;;;0.00;0.00;;;;;;;;;;1752464;28;20327;-75
2023/05/26 03:33:07;;;;;;;0.00;0.00;;;;;;;;;;1751953;28;20206;-75
2023/05/26 03:33:58;;;;;;;0.00;0.00;;;;;;;;;;1752456;28;20207;-75
2023/05/26 03:34:50;;;;;;;0.00;0.00;;;;;;;;;;1752284;28;20229;-75
2023/05/26 03:35:41;;;;;;;0.00;0.00;;;;;;;;;;1752728;28;20466;-75
2023/05/26 03:36:34;;;;;;;0.00;0.00;;;;;;;;;;1752166;28;20296;-74
2023/05/26 03:37:25;;;;;;;0.00;0.00;;;;;;;;;;1752614;28;20206;-74
2023/05/26 03:38:17;;;;;;;0.00;0.00;;;;;;;;;;1752604;28;20204;-74
2023/05/26 03:39:08;;;;;;;0.00;0.00;;;;;;;;;;1752221;28;20717;-74
2023/05/26 03:40:03;;;;;;;0.00;0.00;;;;;;;;;;1752595;28;20617;-74
2023/05/26 03:40:54;;;;;;;0.00;0.00;;;;;;;;;;1752276;28;20565;-75
2023/05/26 03:41:46;;;;;;;0.00;0.00;;;;;;;;;;1752612;28;20221;-75
2023/05/26 03:42:37;;;;;;;0.00;0.00;;;;;;;;;;1752541;28;20209;-75
2023/05/26 03:43:29;;;;;;;0.00;0.00;;;;;;;;;;1752548;28;20550;-75
2023/05/26 03:44:21;;;;;;;0.00;0.00;;;;;;;;;;1752786;28;20211;-74
2023/05/26 03:45:13;;;;;;;0.05;0.05;;;;;;;;;;1751404;28;20219;-74
2023/05/26 03:46:04;;;;;;;0.00;0.00;;;;;;;;;;1752512;28;20219;-74
2023/05/26 03:46:56;;;;;;;0.00;0.00;;;;;;;;;;1752763;28;20205;-74
2023/05/26 03:47:49;;;;;;;0.00;0.00;;;;;;;;;;1752685;28;20315;-74
2023/05/26 03:48:41;;;;;;;0.00;0.00;;;;;;;;;;1752846;28;20237;-74
2023/05/26 03:49:32;;;;;;;0.00;0.00;;;;;;;;;;1751898;28;20212;-74
2023/05/26 03:50:24;;;;;;;0.00;0.00;;;;;;;;;;1752907;28;20531;-74
2023/05/26 03:51:15;;;;;;;0.00;0.00;;;;;;;;;;1751986;28;20218;-74
2023/05/26 03:52:08;;;;;;;0.00;0.00;;;;;;;;;;1752552;28;20317;-74
2023/05/26 03:52:59;;;;;;;0.00;0.00;;;;;;;;;;1752144;28;20631;-74
2023/05/26 03:53:51;;;;;;;0.00;0.00;;;;;;;;;;1748475;28;20243;-74
2023/05/26 03:54:42;;;;;;;0.20;0.20;;;;;;;;;;1751759;28;20589;-74
2023/05/26 03:55:34;;;;;;;0.00;0.00;;;;;;;;;;1752821;28;20485;-74
2023/05/26 03:56:25;;;;;;;0.00;0.00;;;;;;;;;;1752064;28;20886;-75
2023/05/26 03:57:17;;;;;;;0.00;0.00;;;;;;;;;;1752653;28;20904;-75
2023/05/26 03:58:08;;;;;;;0.00;0.00;;;;;;;;;;1747075;28;20217;-75
2023/05/26 03:59:01;;;;;;;0.00;0.00;;;;;;;;;;1752492;28;20210;-75
2023/05/26 03:59:52;;;;;;;0.00;0.00;;;;;;;;;;1752034;28;20274;-75
2023/05/26 04:00:44;;;;;;;0.10;0.10;;;;;;;;;;1752333;28;20264;-75
2023/05/26 04:01:36;;;;;;;0.00;0.00;;;;;;;;;;1750477;28;20217;-75
2023/05/26 04:02:28;;;;;;;0.00;0.00;;;;;;;;;;1752302;28;20281;-75
2023/05/26 04:03:21;;;;;;;0.00;0.00;;;;;;;;;;1752364;28;20708;-75
2023/05/26 04:04:13;;;;;;;0.00;0.00;;;;;;;;;;1750392;28;20212;-75
2023/05/26 04:05:05;;;;;;;0.10;0.10;;;;;;;;;;1749640;28;20287;-75
2023/05/26 04:05:59;;;;;;;0.00;0.00;;;;;;;;;;1752180;28;20645;-74
2023/05/26 04:06:50;;;;;;;0.00;0.00;;;;;;;;;;1752203;28;20206;-75
2023/05/26 04:07:44;;;;;;;0.05;0.05;;;;;;;;;;1747303;28;20210;-75
2023/05/26 04:08:35;;;;;;;0.00;0.00;;;;;;;;;;1746259;28;20213;-75
2023/05/26 04:09:27;;;;;;;0.00;0.00;;;;;;;;;;1749310;28;20284;-75
2023/05/26 04:10:18;;;;;;;0.10;0.10;;;;;;;;;;1745476;28;20558;-75
2023/05/26 04:11:10;;;;;;;0.00;0.00;;;;;;;;;;1750893;28;20644;-75
2023/05/26 04:12:02;;;;;;;0.10;0.10;;;;;;;;;;1752147;28;20199;-75
2023/05/26 04:12:54;;;;;;;0.00;0.00;;;;;;;;;;1750916;28;20420;-75
2023/05/26 04:13:45;;;;;;;0.00;0.00;;;;;;;;;;1745702;28;20204;-75
2023/05/26 04:14:37;;;;;;;0.00;0.00;;;;;;;;;;1750541;28;20219;-75
2023/05/26 04:15:28;;;;;;;0.10;0.10;;;;;;;;;;1752818;28;20696;-75
2023/05/26 04:16:20;;;;;;;0.00;0.00;;;;;;;;;;1749700;28;20658;-75
2023/05/26 04:17:11;;;;;;;0.00;0.00;;;;;;;;;;1747827;28;20213;-75
2023/05/26 04:18:03;;;;;;;0.00;0.00;;;;;;;;;;1748371;28;20558;-75
2023/05/26 04:18:55;;;;;;;0.00;0.00;;;;;;;;;;1747804;28;20284;-75
2023/05/26 04:19:47;;;;;;;0.10;0.10;;;;;;;;;;1751266;28;20204;-75
2023/05/26 04:20:38;;;;;;;0.00;0.00;;;;;;;;;;1747806;28;20204;-75
2023/05/26 04:21:30;;;;;;;0.03;0.03;;;;;;;;;;1749663;28;20270;-75
2023/05/26 04:22:21;;;;;;;0.00;0.00;;;;;;;;;;1751974;28;20700;-75
2023/05/26 04:23:13;;;;;;;0.03;0.03;;;;;;;;;;1752026;28;20556;-75
2023/05/26 04:24:05;;;;;;;0.00;0.00;;;;;;;;;;1751926;28;20210;-75
2023/05/26 04:24:57;;;;;;;0.00;0.00;;;;;;;;;;1745329;28;20205;-75
2023/05/26 04:25:48;;;;;;;0.00;0.00;;;;;;;;;;1752897;28;20217;-75
2023/05/26 04:26:40;;;;;;;0.00;0.00;;;;;;;;;;1752279;28;20267;-75
2023/05/26 04:27:31;;;;;;;0.00;0.00;;;;;;;;;;1753803;28;20298;-76
2023/05/26 04:28:24;;;;;;;0.00;0.00;;;;;;;;;;1753148;28;20199;-75
2023/05/26 04:29:15;;;;;;;0.00;0.00;;;;;;;;;;1751265;28;20213;-75
2023/05/26 04:30:08;;;;;;;0.00;0.00;;;;;;;;;;1748396;28;20205;-75
2023/05/26 04:31:01;;;;;;;0.00;0.00;;;;;;;;;;1753322;28;20270;-75
2023/05/26 04:31:53;;;;;;;0.00;0.00;;;;;;;;;;1753726;28;20474;-75
2023/05/26 04:32:44;;;;;;;0.00;0.00;;;;;;;;;;1753268;28;20211;-75
2023/05/26 04:33:39;;;;;;;0.00;0.00;;;;;;;;;;1753502;28;20212;-75
2023/05/26 04:34:31;;;;;;;0.00;0.00;;;;;;;;;;1753128;28;20209;-75
2023/05/26 04:35:24;;;;;;;0.00;0.00;;;;;;;;;;1754057;28;20200;-75
2023/05/26 04:36:16;;;;;;;0.00;0.00;;;;;;;;;;1753129;28;20207;-75
2023/05/26 04:37:08;;;;;;;0.00;0.00;;;;;;;;;;1748142;28;20258;-75
2023/05/26 04:38:00;;;;;;;0.03;0.03;;;;;;;;;;1753007;28;20644;-75
2023/05/26 04:38:51;;;;;;;0.00;0.00;;;;;;;;;;1753816;28;20212;-75
2023/05/26 04:39:43;;;;;;;0.00;0.00;;;;;;;;;;1753077;28;20237;-75
2023/05/26 04:40:36;;;;;;;0.10;0.10;;;;;;;;;;1754013;28;20270;-75
2023/05/26 04:41:29;;;;;;;0.00;0.00;;;;;;;;;;1753171;28;20522;-75
2023/05/26 04:42:20;;;;;;;0.00;0.00;;;;;;;;;;1753785;28;20206;-75
2023/05/26 04:43:12;;;;;;;0.00;0.00;;;;;;;;;;1749739;28;20217;-75
2023/05/26 04:44:04;;;;;;;0.08;0.08;;;;;;;;;;1753375;28;20220;-75
2023/05/26 04:44:56;;;;;;;0.00;0.00;;;;;;;;;;1753339;28;20208;-74
2023/05/26 04:45:47;;;;;;;0.00;0.00;;;;;;;;;;1747104;28;20678;-75
2023/05/26 04:46:39;;;;;;;0.00;0.00;;;;;;;;;;1752149;28;20646;-75
2023/05/26 04:47:32;;;;;;;0.00;0.00;;;;;;;;;;1753179;28;20213;-75
2023/05/26 04:48:24;;;;;;;0.00;0.00;;;;;;;;;;1753207;28;20236;-74
2023/05/26 04:49:16;;;;;;;0.00;0.00;;;;;;;;;;1753120;28;20592;-74
2023/05/26 04:50:12;;;;;;;0.00;0.00;;;;;;;;;;1753755;28;20222;-74
2023/05/26 04:51:03;;;;;;;0.00;0.00;;;;;;;;;;1753168;28;20213;-74
2023/05/26 04:51:56;;;;;;;0.00;0.00;;;;;;;;;;1747211;28;20694;-74
2023/05/26 04:52:47;;;;;;;0.00;0.00;;;;;;;;;;1746401;28;20287;-74
2023/05/26 04:53:39;;;;;;;0.00;0.00;;;;;;;;;;1752073;28;20664;-74
2023/05/26 04:54:30;;;;;;;0.00;0.00;;;;;;;;;;1753224;28;20236;-74
2023/05/26 04:55:23;;;;;;;0.00;0.00;;;;;;;;;;1753605;28;20216;-74
2023/05/26 04:56:14;;;;;;;0.00;0.00;;;;;;;;;;1753140;28;20221;-74
2023/05/26 04:57:06;;;;;;;0.00;0.00;;;;;;;;;;1753558;28;20301;-74
2023/05/26 04:57:57;;;;;;;0.00;0.00;;;;;;;;;;1753083;28;20600;-73
2023/05/26 04:58:49;;;;;;;0.00;0.00;;;;;;;;;;1746864;28;20602;-73
2023/05/26 04:59:40;;;;;;;0.00;0.00;;;;;;;;;;1751640;28;20213;-73
2023/05/26 05:00:34;;;;;;;0.00;0.00;;;;;;;;;;1753542;28;20611;-73
2023/05/26 05:01:26;;;;;;;0.00;0.00;;;;;;;;;;1752892;28;20302;-73
2023/05/26 05:02:18;;;;;;;0.00;0.00;;;;;;;;;;1752516;28;20199;-74
2023/05/26 05:03:09;;;;;;;0.00;0.00;;;;;;;;;;1752826;28;20233;-74
2023/05/26 05:04:01;;;;;;;0.00;0.00;;;;;;;;;;1753313;28;20216;-74
2023/05/26 05:04:52;;;;;;;0.00;0.00;;;;;;;;;;1753035;28;20711;-74
2023/05/26 05:05:45;;;;;;;0.00;0.00;;;;;;;;;;1753622;28;20407;-73
2023/05/26 05:06:36;;;;;;;0.00;0.00;;;;;;;;;;1751761;28;20209;-73
2023/05/26 05:07:28;;;;;;;0.00;0.00;;;;;;;;;;1750607;28;20270;-73
2023/05/26 05:08:19;;;;;;;0.00;0.00;;;;;;;;;;1746650;28;20215;-73
2023/05/26 05:09:11;;;;;;;0.00;0.00;;;;;;;;;;1747955;28;20209;-73
2023/05/26 05:10:06;;;;;;;0.00;0.00;;;;;;;;;;1751004;28;20217;-73
2023/05/26 05:10:57;;;;;;;0.00;0.00;;;;;;;;;;1753509;28;20212;-73
2023/05/26 05:11:49;;;;;;;0.10;0.10;;;;;;;;;;1753167;28;20220;-73
2023/05/26 05:12:40;;;;;;;0.00;0.00;;;;;;;;;;1752176;28;20226;-73
2023/05/26 05:13:32;;;;;;;0.00;0.00;;;;;;;;;;1750845;28;20201;-73